createdAt,value
2023-02-06T00:01:53.262Z,59.42
2023-02-06T00:04:19.967Z,50.85
2023-02-06T00:06:46.482Z,57.13
2023-02-06T00:09:13.214Z,53.90
2023-02-06T00:11:39.872Z,63.25
2023-02-06T00:14:07.257Z,67.35
2023-02-06T00:16:34.504Z,44.75
2023-02-06T00:19:01.315Z,42.28
2023-02-06T00:21:28.591Z,58.25
2023-02-06T00:23:56.038Z,60.88
2023-02-06T00:26:23.121Z,54.30
2023-02-06T00:28:49.607Z,61.35
2023-02-06T00:31:17.293Z,56.30
2023-02-06T00:33:43.987Z,71.80
2023-02-06T00:36:10.651Z,76.25
2023-02-06T00:38:38.159Z,85.65
2023-02-06T00:41:05.250Z,64.38
2023-02-06T00:43:31.809Z,84.60
2023-02-06T00:45:58.620Z,58.35
2023-02-06T00:48:25.319Z,52.13
2023-02-06T00:50:53.063Z,90.07
2023-02-06T00:53:19.800Z,67.50
2023-02-06T00:55:46.318Z,42.47
2023-02-06T00:58:13.058Z,48.08
2023-02-06T01:00:43.076Z,82.47
2023-02-06T01:03:09.882Z,53.55
2023-02-06T01:05:36.911Z,40.97
2023-02-06T01:08:04.707Z,91.72
2023-02-06T01:10:31.680Z,53.45
2023-02-06T01:12:58.535Z,54.83
2023-02-06T01:15:25.637Z,85.70
2023-02-06T01:17:56.608Z,71.55
2023-02-06T01:20:23.963Z,57.60
2023-02-06T01:22:50.861Z,48.08
2023-02-06T01:25:17.370Z,57.35
2023-02-06T01:27:44.015Z,89.55
2023-02-06T01:30:11.167Z,85.10
2023-02-06T01:32:38.878Z,65.43
2023-02-06T01:35:06.776Z,61.65
2023-02-06T01:37:34.062Z,88.88
2023-02-06T01:40:00.600Z,69.78
2023-02-06T01:42:27.296Z,84.25
2023-02-06T01:45:12.763Z,72.40
2023-02-06T01:47:39.270Z,48.83
2023-02-06T01:50:06.054Z,88.32
2023-02-06T01:52:34.006Z,69.57
2023-02-06T01:55:02.838Z,47.70
2023-02-06T01:57:30.098Z,92.07
2023-02-06T02:00:05.255Z,77.97
2023-02-06T02:02:39.995Z,72.20
2023-02-06T02:05:07.856Z,88.13
2023-02-06T02:07:41.399Z,75.20
2023-02-06T02:10:08.268Z,68.68
2023-02-06T02:12:34.889Z,60.25
2023-02-06T02:15:01.786Z,84.68
2023-02-06T02:17:37.471Z,73.95
2023-02-06T02:20:22.919Z,82.22
2023-02-06T02:22:50.222Z,97.50
2023-02-06T02:25:38.870Z,80.90
2023-02-06T02:28:08.455Z,77.57
2023-02-06T02:30:35.117Z,80.22
2023-02-06T02:33:13.843Z,84.97
2023-02-06T02:35:41.448Z,85.20
2023-02-06T02:38:35.038Z,95.00
2023-02-06T02:41:15.649Z,87.75
2023-02-06T02:43:44.638Z,99.60
2023-02-06T02:46:15.157Z,87.57
2023-02-06T02:48:43.452Z,86.07
2023-02-06T02:51:10.586Z,78.88
2023-02-06T02:53:37.184Z,116.75
2023-02-06T02:56:13.887Z,97.13
2023-02-06T02:58:40.536Z,88.72
2023-02-06T03:01:10.100Z,87.22
2023-02-06T03:03:38.169Z,80.85
2023-02-06T03:06:24.415Z,86.70
2023-02-06T03:09:02.629Z,89.57
2023-02-06T03:11:29.632Z,120.70
2023-02-06T03:14:14.835Z,97.63
2023-02-06T03:16:47.909Z,114.03
2023-02-06T03:19:16.677Z,100.82
2023-02-06T03:21:45.485Z,119.75
2023-02-06T03:24:23.860Z,107.78
2023-02-06T03:26:53.273Z,100.03
2023-02-06T03:29:20.197Z,110.53
2023-02-06T03:31:52.981Z,88.28
2023-02-06T03:34:25.387Z,78.13
2023-02-06T03:36:53.037Z,87.13
2023-02-06T03:39:20.206Z,126.32
2023-02-06T03:41:47.235Z,123.32
2023-02-06T03:44:16.827Z,121.30
2023-02-06T03:46:44.323Z,112.25
2023-02-06T03:49:12.660Z,113.20
2023-02-06T03:51:41.681Z,103.80
2023-02-06T03:54:09.963Z,82.43
2023-02-06T03:56:52.074Z,100.75
2023-02-06T03:59:19.089Z,103.40
2023-02-06T04:01:47.468Z,105.13
2023-02-06T04:04:15.546Z,118.15
2023-02-06T04:06:42.178Z,104.10
2023-02-06T04:09:08.976Z,81.18
2023-02-06T04:11:35.498Z,105.97
2023-02-06T04:14:01.968Z,119.32
2023-02-06T04:16:28.710Z,109.05
2023-02-06T04:18:55.311Z,114.70
2023-02-06T04:21:21.895Z,143.88
2023-02-06T04:23:48.607Z,105.25
2023-02-06T04:26:15.154Z,120.60
2023-02-06T04:28:41.713Z,128.00
2023-02-06T04:31:08.298Z,139.10
2023-02-06T04:33:34.846Z,151.43
2023-02-06T04:36:01.392Z,188.15
2023-02-06T04:38:27.927Z,148.27
2023-02-06T04:40:54.403Z,182.98
2023-02-06T04:43:20.933Z,165.25
2023-02-06T04:45:47.431Z,197.50
2023-02-06T04:48:13.949Z,200.23
2023-02-06T04:50:40.400Z,250.55
2023-02-06T04:53:07.113Z,221.13
2023-02-06T04:55:35.183Z,230.95
2023-02-06T04:58:01.771Z,203.07
2023-02-06T05:00:28.292Z,174.68
2023-02-06T05:02:55.020Z,167.55
2023-02-06T05:05:21.732Z,175.57
2023-02-06T05:07:48.257Z,164.75
2023-02-06T05:10:15.072Z,162.52
2023-02-06T05:12:41.677Z,210.60
2023-02-06T05:15:08.931Z,208.30
2023-02-06T05:17:35.976Z,278.88
2023-02-06T05:20:02.421Z,279.40
2023-02-06T05:22:28.925Z,241.32
2023-02-06T05:24:55.526Z,329.38
2023-02-06T05:27:22.054Z,298.13
2023-02-06T05:29:48.768Z,285.13
2023-02-06T05:32:15.278Z,313.20
2023-02-06T05:34:41.829Z,404.48
2023-02-06T05:37:08.328Z,359.77
2023-02-06T05:39:34.948Z,294.40
2023-02-06T05:42:01.544Z,326.13
2023-02-06T05:44:28.160Z,299.23
2023-02-06T05:46:55.006Z,302.25
2023-02-06T05:49:21.555Z,297.17
2023-02-06T05:51:48.078Z,273.05
2023-02-06T05:54:16.979Z,281.08
2023-02-06T05:56:43.559Z,227.93
2023-02-06T05:59:10.152Z,298.90
2023-02-06T06:01:36.963Z,280.42
2023-02-06T06:04:03.560Z,289.27
2023-02-06T06:06:30.081Z,265.65
2023-02-06T06:08:56.548Z,301.38
2023-02-06T06:11:23.605Z,285.95
2023-02-06T06:13:50.099Z,300.42
2023-02-06T06:16:16.665Z,303.65
2023-02-06T06:18:43.291Z,283.77
2023-02-06T06:21:09.840Z,321.88
2023-02-06T06:23:36.310Z,409.65
2023-02-06T06:26:02.952Z,382.80
2023-02-06T06:28:30.037Z,368.17
2023-02-06T06:31:00.366Z,407.73
2023-02-06T06:33:26.855Z,369.33
2023-02-06T06:35:53.363Z,311.65
2023-02-06T06:38:19.867Z,377.45
2023-02-06T06:40:46.392Z,303.08
2023-02-06T06:43:13.009Z,385.83
2023-02-06T06:45:39.813Z,288.90
2023-02-06T06:48:06.393Z,325.83
2023-02-06T06:50:32.980Z,465.50
2023-02-06T06:52:59.463Z,320.52
2023-02-06T06:55:26.147Z,329.23
2023-02-06T06:57:52.734Z,300.52
2023-02-06T07:00:19.494Z,323.85
2023-02-06T07:02:46.016Z,424.30
2023-02-06T07:05:12.933Z,429.80
2023-02-06T07:07:39.873Z,390.33
2023-02-06T07:10:07.393Z,362.33
2023-02-06T07:12:34.045Z,471.67
2023-02-06T07:15:00.588Z,411.13
2023-02-06T07:17:27.081Z,399.92
2023-02-06T07:19:53.550Z,474.83
2023-02-06T07:22:20.258Z,466.30
2023-02-06T07:24:46.908Z,432.13
2023-02-06T07:27:13.580Z,450.70
2023-02-06T07:29:40.104Z,457.80
2023-02-06T07:32:07.109Z,496.23
2023-02-06T07:34:35.133Z,416.73
2023-02-06T07:37:01.938Z,527.53
2023-02-06T07:39:28.734Z,415.13
2023-02-06T07:41:55.235Z,511.75
2023-02-06T07:44:23.016Z,424.77
2023-02-06T07:46:49.642Z,501.35
2023-02-06T07:49:16.141Z,496.48
2023-02-06T07:51:43.360Z,413.25
2023-02-06T07:54:10.299Z,510.38
2023-02-06T07:56:37.139Z,511.13
2023-02-06T07:59:03.618Z,351.00
2023-02-06T08:01:30.356Z,519.80
2023-02-06T08:03:56.954Z,448.20
2023-02-06T08:06:24.517Z,458.75
2023-02-06T08:08:51.801Z,425.02
2023-02-06T08:11:20.039Z,333.63
2023-02-06T08:13:47.380Z,331.60
2023-02-06T08:16:15.281Z,338.77
2023-02-06T08:18:42.090Z,398.70
2023-02-06T08:21:16.303Z,228.83
2023-02-06T08:23:43.290Z,484.67
2023-02-06T08:26:09.927Z,424.87
2023-02-06T08:28:37.136Z,437.10
2023-02-06T08:31:14.551Z,474.60
2023-02-06T08:33:41.598Z,508.33
2023-02-06T08:36:08.495Z,503.52
2023-02-06T08:38:35.453Z,439.80
2023-02-06T08:41:02.350Z,474.70
2023-02-06T08:43:29.421Z,279.27
2023-02-06T08:45:59.263Z,450.37
2023-02-06T08:48:26.965Z,486.67
2023-02-06T08:51:06.478Z,453.00
2023-02-06T08:53:33.691Z,495.70
2023-02-06T08:56:01.055Z,470.30
2023-02-06T08:58:27.968Z,497.47
2023-02-06T09:00:54.580Z,394.40
2023-02-06T09:03:22.744Z,325.47
2023-02-06T09:05:50.037Z,477.67
2023-02-06T09:08:16.944Z,442.27
2023-02-06T09:10:43.633Z,386.63
2023-02-06T09:13:10.186Z,468.23
2023-02-06T09:15:37.504Z,326.83
2023-02-06T09:18:04.439Z,455.70
2023-02-06T09:20:31.006Z,366.27
2023-02-06T09:22:57.558Z,413.83
2023-02-06T09:25:24.168Z,372.60
2023-02-06T09:27:50.767Z,373.53
2023-02-06T09:30:17.498Z,494.30
2023-02-06T09:32:44.591Z,592.17
2023-02-06T09:35:11.115Z,322.73
2023-02-06T09:37:37.826Z,541.37
2023-02-06T09:40:04.573Z,313.80
2023-02-06T09:42:35.843Z,274.13
2023-02-06T09:45:13.851Z,208.60
2023-02-06T09:47:58.301Z,293.00
2023-02-06T09:51:03.576Z,275.57
2023-02-06T09:53:37.261Z,285.13
2023-02-06T09:56:06.645Z,143.47
2023-02-06T09:58:46.409Z,357.97
2023-02-06T10:01:17.992Z,376.70
2023-02-06T10:03:47.596Z,301.30
2023-02-06T10:06:17.799Z,191.73
2023-02-06T10:08:49.264Z,319.10
2023-02-06T10:11:18.678Z,355.33
2023-02-06T10:13:45.267Z,258.00
2023-02-06T10:16:18.761Z,166.00
2023-02-06T10:18:50.290Z,239.27
2023-02-06T10:21:23.332Z,177.53
2023-02-06T10:23:56.867Z,132.37
2023-02-06T10:26:23.663Z,178.27
2023-02-06T10:28:51.709Z,93.77
2023-02-06T10:31:21.474Z,109.60
2023-02-06T10:34:06.647Z,63.00
2023-02-06T10:36:39.356Z,90.03
2023-02-06T10:39:18.400Z,105.10
2023-02-06T10:41:58.001Z,48.27
2023-02-06T10:44:30.860Z,72.07
2023-02-06T10:46:57.650Z,68.43
2023-02-06T10:49:33.972Z,71.83
2023-02-06T10:52:02.478Z,45.70
2023-02-06T10:54:38.256Z,77.47
2023-02-06T10:57:11.425Z,61.17
2023-02-06T10:59:39.964Z,69.23
2023-02-06T11:02:09.665Z,75.70
2023-02-06T11:04:38.488Z,86.67
2023-02-06T11:07:08.886Z,71.10
2023-02-06T11:09:35.719Z,94.60
2023-02-06T11:12:02.430Z,57.23
2023-02-06T11:14:31.801Z,98.17
2023-02-06T11:17:01.974Z,69.20
2023-02-06T11:19:38.311Z,62.53
2023-02-06T11:22:05.713Z,52.77
2023-02-06T11:24:32.543Z,72.63
2023-02-06T11:27:00.550Z,64.63
2023-02-06T11:29:37.056Z,65.83
2023-02-06T11:32:07.660Z,65.33
2023-02-06T11:34:36.082Z,56.50
2023-02-06T11:37:04.157Z,36.10
2023-02-06T11:39:32.616Z,56.47
2023-02-06T11:42:05.008Z,61.90
2023-02-06T11:44:35.948Z,44.00
2023-02-06T11:47:20.842Z,39.67
2023-02-06T11:49:47.638Z,46.70
2023-02-06T11:52:31.386Z,48.23
2023-02-06T11:55:02.153Z,43.90
2023-02-06T11:57:30.840Z,37.33
2023-02-06T11:59:58.913Z,52.30
2023-02-06T12:02:33.131Z,52.07
2023-02-06T12:05:19.961Z,34.47
2023-02-06T12:07:51.858Z,39.83
2023-02-06T12:10:19.995Z,37.40
2023-02-06T12:12:49.409Z,55.53
2023-02-06T12:15:44.838Z,40.90
2023-02-06T12:18:16.624Z,50.40
2023-02-06T12:21:06.875Z,51.00
2023-02-06T12:23:39.725Z,43.40
2023-02-06T12:26:20.676Z,62.47
2023-02-06T12:28:47.280Z,58.37
2023-02-06T12:31:19.256Z,60.93
2023-02-06T12:33:48.204Z,50.47
2023-02-06T12:36:17.554Z,45.00
2023-02-06T12:38:47.216Z,34.40
2023-02-06T12:41:32.556Z,39.33
2023-02-06T12:44:12.060Z,45.97
2023-02-06T12:46:39.058Z,48.30
2023-02-06T12:49:24.170Z,48.10
2023-02-06T12:51:54.862Z,53.77
2023-02-06T12:54:23.730Z,50.97
2023-02-06T12:56:51.763Z,49.33
2023-02-06T12:59:43.750Z,39.80
2023-02-06T13:02:18.899Z,34.70
2023-02-06T13:04:46.968Z,44.97
2023-02-06T13:07:16.172Z,41.97
2023-02-06T13:09:49.054Z,64.70
2023-02-06T13:12:19.837Z,37.50
2023-02-06T13:14:49.069Z,36.27
2023-02-06T13:17:26.569Z,40.37
2023-02-06T13:20:01.204Z,41.13
2023-02-06T13:22:37.728Z,45.00
2023-02-06T13:25:23.613Z,39.87
2023-02-06T13:27:50.973Z,42.50
2023-02-06T13:30:24.010Z,37.60
2023-02-06T13:32:51.361Z,48.03
2023-02-06T13:35:21.497Z,44.83
2023-02-06T13:37:49.628Z,56.27
2023-02-06T13:40:22.404Z,61.03
2023-02-06T13:42:49.309Z,45.67
2023-02-06T13:45:26.355Z,46.67
2023-02-06T13:48:05.514Z,37.60
2023-02-06T13:50:32.211Z,47.67
2023-02-06T13:53:19.673Z,31.70
2023-02-06T13:55:52.451Z,37.93
2023-02-06T13:58:37.133Z,48.03
2023-02-06T14:01:04.792Z,41.50
2023-02-06T14:03:33.849Z,51.00
2023-02-06T14:06:16.087Z,43.57
2023-02-06T14:08:48.659Z,44.20
2023-02-06T14:11:34.218Z,46.27
2023-02-06T14:14:00.898Z,59.17
2023-02-06T14:16:30.616Z,77.53
2023-02-06T14:19:09.433Z,52.80
2023-02-06T14:21:46.055Z,58.43
2023-02-06T14:24:23.745Z,51.53
2023-02-06T14:27:08.981Z,59.03
2023-02-06T14:29:55.209Z,56.23
2023-02-06T14:32:34.161Z,83.97
2023-02-06T14:35:00.739Z,57.13
2023-02-06T14:37:34.098Z,50.30
2023-02-06T14:40:07.773Z,55.57
2023-02-06T14:42:39.541Z,49.53
2023-02-06T14:45:25.629Z,57.47
2023-02-06T14:47:52.889Z,77.30
2023-02-06T14:50:24.948Z,61.50
2023-02-06T14:52:53.824Z,65.43
2023-02-06T14:55:35.312Z,73.37
2023-02-06T14:58:04.307Z,74.30
2023-02-06T15:00:31.569Z,78.87
2023-02-06T15:03:04.458Z,79.07
2023-02-06T15:05:31.947Z,74.67
2023-02-06T15:07:59.980Z,79.53
2023-02-06T15:10:28.833Z,78.43
2023-02-06T15:12:55.478Z,76.43
2023-02-06T15:15:26.826Z,87.23
2023-02-06T15:17:59.550Z,73.97
2023-02-06T15:20:28.764Z,73.83
2023-02-06T15:23:05.066Z,66.73
2023-02-06T15:25:53.879Z,70.37
2023-02-06T15:28:22.301Z,75.57
2023-02-06T15:30:53.242Z,67.40
2023-02-06T15:33:23.182Z,73.70
2023-02-06T15:35:53.102Z,84.70
2023-02-06T15:38:21.197Z,85.73
2023-02-06T15:40:52.991Z,70.90
2023-02-06T15:43:22.079Z,76.93
2023-02-06T15:45:50.654Z,75.70
2023-02-06T15:48:25.996Z,83.50
2023-02-06T15:50:55.663Z,84.43
2023-02-06T15:53:49.553Z,82.00
2023-02-06T15:56:21.497Z,69.13
2023-02-06T15:58:49.413Z,76.37
2023-02-06T16:01:19.331Z,95.97
2023-02-06T16:03:48.743Z,85.20
2023-02-06T16:06:16.575Z,81.97
2023-02-06T16:08:48.800Z,91.30
2023-02-06T16:11:34.259Z,109.83
2023-02-06T16:14:00.902Z,93.10
2023-02-06T16:16:28.230Z,106.00
2023-02-06T16:18:55.837Z,88.80
2023-02-06T16:21:22.596Z,114.47
2023-02-06T16:23:49.336Z,104.63
2023-02-06T16:26:21.713Z,105.27
2023-02-06T16:28:57.042Z,98.07
2023-02-06T16:31:24.662Z,122.37
2023-02-06T16:33:52.454Z,97.77
2023-02-06T16:36:20.271Z,119.77
2023-02-06T16:38:57.619Z,129.07
2023-02-06T16:41:33.575Z,123.27
2023-02-06T16:44:00.746Z,136.50
2023-02-06T16:46:27.915Z,99.10
2023-02-06T16:48:55.574Z,114.00
2023-02-06T16:51:23.626Z,114.83
2023-02-06T16:53:50.531Z,112.63
2023-02-06T16:56:17.916Z,99.57
2023-02-06T16:58:45.094Z,104.37
2023-02-06T17:01:15.278Z,104.60
2023-02-06T17:03:41.944Z,105.20
2023-02-06T17:06:11.865Z,104.83
2023-02-06T17:08:38.756Z,107.27
2023-02-06T17:11:05.489Z,102.37
2023-02-06T17:13:32.173Z,103.57
2023-02-06T17:15:59.020Z,135.83
2023-02-06T17:18:25.763Z,125.27
2023-02-06T17:20:53.171Z,148.63
2023-02-06T17:23:19.880Z,109.83
2023-02-06T17:25:46.549Z,126.07
2023-02-06T17:28:38.359Z,98.90
2023-02-06T17:31:05.222Z,126.97
2023-02-06T17:33:32.158Z,114.43
2023-02-06T17:35:58.903Z,115.60
2023-02-06T17:38:25.434Z,125.67
2023-02-06T17:40:53.006Z,109.63
2023-02-06T17:43:19.957Z,106.43
2023-02-06T17:45:46.778Z,175.47
2023-02-06T17:48:13.764Z,117.47
2023-02-06T17:50:41.280Z,121.70
2023-02-06T17:53:11.905Z,123.63
2023-02-06T17:55:38.489Z,145.43
2023-02-06T17:58:05.474Z,158.47
2023-02-06T18:00:32.184Z,125.37
2023-02-06T18:02:59.521Z,146.60
2023-02-06T18:05:26.382Z,119.50
2023-02-06T18:07:53.054Z,118.33
2023-02-06T18:10:20.486Z,105.47
2023-02-06T18:12:47.484Z,114.07
2023-02-06T18:15:14.438Z,130.13
2023-02-06T18:17:41.537Z,120.53
2023-02-06T18:20:08.503Z,126.53
2023-02-06T18:22:40.942Z,136.07
2023-02-06T18:25:12.437Z,107.47
2023-02-06T18:27:39.519Z,133.13
2023-02-06T18:30:06.706Z,132.97
2023-02-06T18:32:33.832Z,143.10
2023-02-06T18:35:00.598Z,150.07
2023-02-06T18:37:27.565Z,147.60
2023-02-06T18:39:57.732Z,114.80
2023-02-06T18:42:43.129Z,135.07
2023-02-06T18:45:09.782Z,139.53
2023-02-06T18:47:36.601Z,141.73
2023-02-06T18:50:03.265Z,114.77
2023-02-06T18:52:30.123Z,151.13
2023-02-06T18:54:56.771Z,120.53
2023-02-06T18:57:24.995Z,141.17
2023-02-06T18:59:51.950Z,125.90
2023-02-06T19:02:18.809Z,117.13
2023-02-06T19:04:45.702Z,111.33
2023-02-06T19:07:12.366Z,144.40
2023-02-06T19:09:39.098Z,132.77
2023-02-06T19:12:05.813Z,116.50
2023-02-06T19:14:32.646Z,127.40
2023-02-06T19:16:59.566Z,121.53
2023-02-06T19:19:26.249Z,104.50
2023-02-06T19:21:53.161Z,125.90
2023-02-06T19:24:19.924Z,131.73
2023-02-06T19:26:46.742Z,132.83
2023-02-06T19:29:14.795Z,111.87
2023-02-06T19:31:42.671Z,134.60
2023-02-06T19:34:09.594Z,134.03
2023-02-06T19:36:36.210Z,128.33
2023-02-06T19:39:04.305Z,133.40
2023-02-06T19:41:32.943Z,136.53
2023-02-06T19:44:04.612Z,142.60
2023-02-06T19:46:31.356Z,108.80
2023-02-06T19:48:58.201Z,126.40
2023-02-06T19:51:26.520Z,174.77
2023-02-06T19:53:53.842Z,140.57
2023-02-06T19:56:34.705Z,133.13
2023-02-06T19:59:03.049Z,144.77
2023-02-06T20:01:30.378Z,148.70
2023-02-06T20:03:57.815Z,110.47
2023-02-06T20:06:24.911Z,158.68
2023-02-06T20:08:51.508Z,149.47
2023-02-06T20:11:19.118Z,138.38
2023-02-06T20:13:47.390Z,164.80
2023-02-06T20:16:15.756Z,173.60
2023-02-06T20:18:42.355Z,169.60
2023-02-06T20:21:20.139Z,176.50
2023-02-06T20:23:46.887Z,142.20
2023-02-06T20:26:13.753Z,186.40
2023-02-06T20:28:40.271Z,181.07
2023-02-06T20:31:08.021Z,163.18
2023-02-06T20:33:38.411Z,146.98
2023-02-06T20:36:06.150Z,156.02
2023-02-06T20:38:32.713Z,148.57
2023-02-06T20:40:59.453Z,132.25
2023-02-06T20:43:26.475Z,147.75
2023-02-06T20:45:53.133Z,151.03
2023-02-06T20:48:19.751Z,149.02
2023-02-06T20:50:46.306Z,148.27
2023-02-06T20:53:12.937Z,156.32
2023-02-06T20:55:41.702Z,135.23
2023-02-06T20:58:08.354Z,132.40
2023-02-06T21:00:35.132Z,146.27
2023-02-06T21:03:02.046Z,155.23
2023-02-06T21:05:28.610Z,148.35
2023-02-06T21:07:57.339Z,138.98
2023-02-06T21:10:24.263Z,162.70
2023-02-06T21:12:50.857Z,169.85
2023-02-06T21:15:17.507Z,137.20
2023-02-06T21:17:44.138Z,149.75
2023-02-06T21:20:11.177Z,145.90
2023-02-06T21:22:37.749Z,123.35
2023-02-06T21:25:04.829Z,173.55
2023-02-06T21:27:31.987Z,123.57
2023-02-06T21:29:58.571Z,121.57
2023-02-06T21:32:25.762Z,139.02
2023-02-06T21:34:52.654Z,118.03
2023-02-06T21:37:19.674Z,112.88
2023-02-06T21:39:46.742Z,114.10
2023-02-06T21:42:13.323Z,113.65
2023-02-06T21:44:40.153Z,111.22
2023-02-06T21:47:08.511Z,108.05
2023-02-06T21:49:35.397Z,121.05
2023-02-06T21:52:01.970Z,131.60
2023-02-06T21:54:29.438Z,144.32
2023-02-06T21:56:57.474Z,121.32
2023-02-06T21:59:23.983Z,111.40
2023-02-06T22:01:50.538Z,126.05
2023-02-06T22:04:17.225Z,116.03
2023-02-06T22:06:43.732Z,108.03
2023-02-06T22:09:15.247Z,135.20
2023-02-06T22:11:42.157Z,102.72
2023-02-06T22:14:13.412Z,148.48
2023-02-06T22:16:40.106Z,107.80
2023-02-06T22:19:06.844Z,105.47
2023-02-06T22:21:34.001Z,101.22
2023-02-06T22:24:04.515Z,118.13
2023-02-06T22:26:31.420Z,116.88
2023-02-06T22:28:59.037Z,101.20
2023-02-06T22:31:26.698Z,113.28
2023-02-06T22:33:53.675Z,121.28
2023-02-06T22:36:22.032Z,120.60
2023-02-06T22:38:52.483Z,125.15
2023-02-06T22:41:19.029Z,112.10
2023-02-06T22:43:46.376Z,99.05
2023-02-06T22:46:18.009Z,107.15
2023-02-06T22:48:44.601Z,116.60
2023-02-06T22:51:11.163Z,117.38
2023-02-06T22:53:38.224Z,130.48
2023-02-06T22:56:28.974Z,109.53
2023-02-06T22:58:56.612Z,105.28
2023-02-06T23:01:23.890Z,72.07
2023-02-06T23:03:54.164Z,93.50
2023-02-06T23:06:21.326Z,74.72
2023-02-06T23:08:47.862Z,96.45
2023-02-06T23:11:14.425Z,84.20
2023-02-06T23:13:41.598Z,101.45
2023-02-06T23:16:08.521Z,99.97
2023-02-06T23:18:35.511Z,119.72
2023-02-06T23:21:04.393Z,96.45
2023-02-06T23:23:31.453Z,83.03
2023-02-06T23:25:58.037Z,93.00
2023-02-06T23:28:26.464Z,77.60
2023-02-06T23:30:53.449Z,70.20
2023-02-06T23:33:20.558Z,73.72
2023-02-06T23:35:47.184Z,65.50
2023-02-06T23:38:13.810Z,84.25
2023-02-06T23:40:40.389Z,73.60
2023-02-06T23:43:07.011Z,58.22
2023-02-06T23:45:33.815Z,69.03
2023-02-06T23:48:00.467Z,60.55
2023-02-06T23:50:27.350Z,73.90
2023-02-06T23:52:53.855Z,56.47
2023-02-06T23:55:20.742Z,57.08
2023-02-06T23:57:47.238Z,60.47
